sensor_id;sensor_type;location;lat;lon;timestamp;temperature;humidity
16158;DHT22;8184;60.256;18.694;2022-07-29T00:01:45;11.80;99.90
16158;DHT22;8184;60.256;18.694;2022-07-29T00:04:14;11.70;99.90
16158;DHT22;8184;60.256;18.694;2022-07-29T00:06:43;11.60;99.90
16158;DHT22;8184;60.256;18.694;2022-07-29T00:09:11;11.50;99.90
16158;DHT22;8184;60.256;18.694;2022-07-29T00:11:40;11.60;99.90
16158;DHT22;8184;60.256;18.694;2022-07-29T00:14:08;11.50;99.90
16158;DHT22;8184;60.256;18.694;2022-07-29T00:16:36;11.60;99.90
16158;DHT22;8184;60.256;18.694;2022-07-29T00:19:07;11.60;99.90
16158;DHT22;8184;60.256;18.694;2022-07-29T00:21:40;11.50;99.90
16158;DHT22;8184;60.256;18.694;2022-07-29T00:24:08;11.50;99.90
16158;DHT22;8184;60.256;18.694;2022-07-29T00:26:39;11.30;99.90
16158;DHT22;8184;60.256;18.694;2022-07-29T00:29:07;11.40;99.90
16158;DHT22;8184;60.256;18.694;2022-07-29T00:31:55;11.40;99.90
16158;DHT22;8184;60.256;18.694;2022-07-29T00:34:23;11.30;99.90
16158;DHT22;8184;60.256;18.694;2022-07-29T00:37:11;11.40;99.90
16158;DHT22;8184;60.256;18.694;2022-07-29T00:39:39;11.40;99.90
16158;DHT22;8184;60.256;18.694;2022-07-29T00:42:08;11.50;99.90
16158;DHT22;8184;60.256;18.694;2022-07-29T00:44:37;11.40;99.90
16158;DHT22;8184;60.256;18.694;2022-07-29T00:47:05;11.40;99.90
16158;DHT22;8184;60.256;18.694;2022-07-29T00:49:34;11.40;99.90
16158;DHT22;8184;60.256;18.694;2022-07-29T00:52:02;11.50;99.90
16158;DHT22;8184;60.256;18.694;2022-07-29T00:54:32;11.60;99.90
16158;DHT22;8184;60.256;18.694;2022-07-29T00:57:00;11.50;99.90
16158;DHT22;8184;60.256;18.694;2022-07-29T00:59:32;11.40;99.90
16158;DHT22;8184;60.256;18.694;2022-07-29T01:02:01;11.40;99.90
16158;DHT22;8184;60.256;18.694;2022-07-29T01:04:30;11.50;99.90
16158;DHT22;8184;60.256;18.694;2022-07-29T01:06:58;11.30;99.90
16158;DHT22;8184;60.256;18.694;2022-07-29T01:09:28;11.40;99.90
16158;DHT22;8184;60.256;18.694;2022-07-29T01:12:14;11.30;99.90
16158;DHT22;8184;60.256;18.694;2022-07-29T01:14:43;11.40;99.90
16158;DHT22;8184;60.256;18.694;2022-07-29T01:17:12;11.40;99.90
16158;DHT22;8184;60.256;18.694;2022-07-29T01:19:45;11.50;99.90
16158;DHT22;8184;60.256;18.694;2022-07-29T01:22:24;11.40;99.90
16158;DHT22;8184;60.256;18.694;2022-07-29T01:25:06;11.40;99.90
16158;DHT22;8184;60.256;18.694;2022-07-29T01:27:41;11.30;99.90
16158;DHT22;8184;60.256;18.694;2022-07-29T01:30:13;11.40;99.90
16158;DHT22;8184;60.256;18.694;2022-07-29T01:32:42;11.40;99.90
16158;DHT22;8184;60.256;18.694;2022-07-29T01:35:15;11.20;99.90
16158;DHT22;8184;60.256;18.694;2022-07-29T01:37:45;11.50;99.90
16158;DHT22;8184;60.256;18.694;2022-07-29T01:40:18;11.50;99.90
16158;DHT22;8184;60.256;18.694;2022-07-29T01:42:50;11.40;99.90
16158;DHT22;8184;60.256;18.694;2022-07-29T01:45:21;11.40;99.90
16158;DHT22;8184;60.256;18.694;2022-07-29T01:47:53;11.40;99.90
16158;DHT22;8184;60.256;18.694;2022-07-29T01:50:23;12.40;99.90
16158;DHT22;8184;60.256;18.694;2022-07-29T01:52:56;11.50;99.90
16158;DHT22;8184;60.256;18.694;2022-07-29T01:55:25;11.40;99.90
16158;DHT22;8184;60.256;18.694;2022-07-29T01:57:54;11.40;99.90
16158;DHT22;8184;60.256;18.694;2022-07-29T02:00:26;11.30;99.90
16158;DHT22;8184;60.256;18.694;2022-07-29T02:02:55;11.30;99.90
16158;DHT22;8184;60.256;18.694;2022-07-29T02:05:24;11.30;99.90
16158;DHT22;8184;60.256;18.694;2022-07-29T02:07:54;11.30;99.90
16158;DHT22;8184;60.256;18.694;2022-07-29T02:10:24;11.30;99.90
16158;DHT22;8184;60.256;18.694;2022-07-29T02:12:54;11.30;99.90
16158;DHT22;8184;60.256;18.694;2022-07-29T02:15:22;11.30;99.90
16158;DHT22;8184;60.256;18.694;2022-07-29T02:17:53;11.30;99.90
16158;DHT22;8184;60.256;18.694;2022-07-29T02:20:23;11.30;99.90
16158;DHT22;8184;60.256;18.694;2022-07-29T02:22:54;11.40;99.90
16158;DHT22;8184;60.256;18.694;2022-07-29T02:25:23;11.30;99.90
16158;DHT22;8184;60.256;18.694;2022-07-29T02:28:04;11.30;99.90
16158;DHT22;8184;60.256;18.694;2022-07-29T02:30:33;11.30;99.90
16158;DHT22;8184;60.256;18.694;2022-07-29T02:33:03;11.20;99.90
16158;DHT22;8184;60.256;18.694;2022-07-29T02:35:32;11.30;99.90
16158;DHT22;8184;60.256;18.694;2022-07-29T02:38:01;11.30;99.90
16158;DHT22;8184;60.256;18.694;2022-07-29T02:40:47;11.40;99.90
16158;DHT22;8184;60.256;18.694;2022-07-29T02:43:16;11.30;99.90
16158;DHT22;8184;60.256;18.694;2022-07-29T02:45:45;11.30;99.90
16158;DHT22;8184;60.256;18.694;2022-07-29T02:48:19;11.30;99.90
16158;DHT22;8184;60.256;18.694;2022-07-29T02:50:48;11.40;99.90
16158;DHT22;8184;60.256;18.694;2022-07-29T02:53:18;11.30;99.90
16158;DHT22;8184;60.256;18.694;2022-07-29T02:55:48;11.40;99.90
16158;DHT22;8184;60.256;18.694;2022-07-29T02:58:21;11.30;99.90
16158;DHT22;8184;60.256;18.694;2022-07-29T03:00:55;11.30;99.90
16158;DHT22;8184;60.256;18.694;2022-07-29T03:03:27;11.30;99.90
16158;DHT22;8184;60.256;18.694;2022-07-29T03:05:56;11.30;99.90
16158;DHT22;8184;60.256;18.694;2022-07-29T03:08:25;11.30;99.90
16158;DHT22;8184;60.256;18.694;2022-07-29T03:10:54;11.40;99.90
16158;DHT22;8184;60.256;18.694;2022-07-29T03:13:23;11.40;99.90
16158;DHT22;8184;60.256;18.694;2022-07-29T03:15:51;11.40;99.90
16158;DHT22;8184;60.256;18.694;2022-07-29T03:18:20;11.50;99.90
16158;DHT22;8184;60.256;18.694;2022-07-29T03:20:49;11.50;99.90
16158;DHT22;8184;60.256;18.694;2022-07-29T03:23:18;11.50;99.90
16158;DHT22;8184;60.256;18.694;2022-07-29T03:25:46;11.50;99.90
16158;DHT22;8184;60.256;18.694;2022-07-29T03:28:14;11.50;99.90
16158;DHT22;8184;60.256;18.694;2022-07-29T03:30:44;11.60;99.90
16158;DHT22;8184;60.256;18.694;2022-07-29T03:33:16;11.90;99.90
16158;DHT22;8184;60.256;18.694;2022-07-29T03:35:44;12.10;99.90
16158;DHT22;8184;60.256;18.694;2022-07-29T03:38:14;12.10;99.90
16158;DHT22;8184;60.256;18.694;2022-07-29T03:40:42;12.00;99.90
16158;DHT22;8184;60.256;18.694;2022-07-29T03:43:12;12.00;99.90
16158;DHT22;8184;60.256;18.694;2022-07-29T03:45:44;12.20;99.90
16158;DHT22;8184;60.256;18.694;2022-07-29T03:48:13;12.30;99.90
16158;DHT22;8184;60.256;18.694;2022-07-29T03:50:42;12.40;99.90
16158;DHT22;8184;60.256;18.694;2022-07-29T03:53:11;12.70;99.90
16158;DHT22;8184;60.256;18.694;2022-07-29T03:55:48;12.80;99.90
16158;DHT22;8184;60.256;18.694;2022-07-29T03:58:18;13.10;99.90
16158;DHT22;8184;60.256;18.694;2022-07-29T04:00:46;13.10;99.90
16158;DHT22;8184;60.256;18.694;2022-07-29T04:03:15;13.20;99.90
16158;DHT22;8184;60.256;18.694;2022-07-29T04:05:44;13.10;99.90
16158;DHT22;8184;60.256;18.694;2022-07-29T04:08:12;12.90;99.90
16158;DHT22;8184;60.256;18.694;2022-07-29T04:10:40;13.00;99.90
16158;DHT22;8184;60.256;18.694;2022-07-29T04:13:09;12.90;99.90
16158;DHT22;8184;60.256;18.694;2022-07-29T04:15:37;13.10;99.90
16158;DHT22;8184;60.256;18.694;2022-07-29T04:18:08;13.40;99.90
16158;DHT22;8184;60.256;18.694;2022-07-29T04:20:36;14.10;99.90
16158;DHT22;8184;60.256;18.694;2022-07-29T04:23:05;14.10;99.90
16158;DHT22;8184;60.256;18.694;2022-07-29T04:25:33;14.30;99.90
16158;DHT22;8184;60.256;18.694;2022-07-29T04:28:01;14.40;99.90
16158;DHT22;8184;60.256;18.694;2022-07-29T04:30:31;14.30;99.90
16158;DHT22;8184;60.256;18.694;2022-07-29T04:33:00;14.00;99.90
16158;DHT22;8184;60.256;18.694;2022-07-29T04:35:29;14.10;99.90
16158;DHT22;8184;60.256;18.694;2022-07-29T04:38:04;14.20;99.90
16158;DHT22;8184;60.256;18.694;2022-07-29T04:40:41;14.20;99.90
16158;DHT22;8184;60.256;18.694;2022-07-29T04:43:09;14.80;99.90
16158;DHT22;8184;60.256;18.694;2022-07-29T04:45:41;14.60;99.90
16158;DHT22;8184;60.256;18.694;2022-07-29T04:48:09;14.80;99.90
16158;DHT22;8184;60.256;18.694;2022-07-29T04:50:37;15.40;99.90
16158;DHT22;8184;60.256;18.694;2022-07-29T04:53:06;15.50;99.90
16158;DHT22;8184;60.256;18.694;2022-07-29T04:55:34;15.30;99.90
16158;DHT22;8184;60.256;18.694;2022-07-29T04:58:04;15.20;99.90
16158;DHT22;8184;60.256;18.694;2022-07-29T05:00:35;15.60;99.90
16158;DHT22;8184;60.256;18.694;2022-07-29T05:03:08;15.60;99.90
16158;DHT22;8184;60.256;18.694;2022-07-29T05:05:36;15.90;99.90
16158;DHT22;8184;60.256;18.694;2022-07-29T05:08:04;16.10;99.90
16158;DHT22;8184;60.256;18.694;2022-07-29T05:10:32;16.50;99.90
16158;DHT22;8184;60.256;18.694;2022-07-29T05:13:07;16.50;99.90
16158;DHT22;8184;60.256;18.694;2022-07-29T05:15:37;16.40;99.90
16158;DHT22;8184;60.256;18.694;2022-07-29T05:18:07;16.60;99.90
16158;DHT22;8184;60.256;18.694;2022-07-29T05:20:36;16.70;99.90
16158;DHT22;8184;60.256;18.694;2022-07-29T05:23:04;16.30;99.90
16158;DHT22;8184;60.256;18.694;2022-07-29T05:25:32;16.70;99.90
16158;DHT22;8184;60.256;18.694;2022-07-29T05:28:10;16.80;99.90
16158;DHT22;8184;60.256;18.694;2022-07-29T05:30:40;16.70;99.90
16158;DHT22;8184;60.256;18.694;2022-07-29T05:33:10;17.30;99.90
16158;DHT22;8184;60.256;18.694;2022-07-29T05:35:58;17.20;99.90
16158;DHT22;8184;60.256;18.694;2022-07-29T05:38:26;17.20;99.90
16158;DHT22;8184;60.256;18.694;2022-07-29T05:40:56;17.10;99.90
16158;DHT22;8184;60.256;18.694;2022-07-29T05:43:24;17.40;99.90
16158;DHT22;8184;60.256;18.694;2022-07-29T05:45:52;17.60;99.90
16158;DHT22;8184;60.256;18.694;2022-07-29T05:48:24;17.70;99.90
16158;DHT22;8184;60.256;18.694;2022-07-29T05:50:52;17.40;99.90
16158;DHT22;8184;60.256;18.694;2022-07-29T05:53:21;17.90;99.90
16158;DHT22;8184;60.256;18.694;2022-07-29T05:55:49;18.00;99.90
16158;DHT22;8184;60.256;18.694;2022-07-29T05:58:18;17.50;99.90
16158;DHT22;8184;60.256;18.694;2022-07-29T06:00:47;17.90;99.90
16158;DHT22;8184;60.256;18.694;2022-07-29T06:03:15;18.10;99.90
16158;DHT22;8184;60.256;18.694;2022-07-29T06:05:45;18.00;99.90
16158;DHT22;8184;60.256;18.694;2022-07-29T06:08:13;18.00;99.90
16158;DHT22;8184;60.256;18.694;2022-07-29T06:10:41;17.90;99.90
16158;DHT22;8184;60.256;18.694;2022-07-29T06:13:09;17.80;99.90
16158;DHT22;8184;60.256;18.694;2022-07-29T06:15:37;18.00;99.90
16158;DHT22;8184;60.256;18.694;2022-07-29T06:18:08;18.20;99.90
16158;DHT22;8184;60.256;18.694;2022-07-29T06:20:39;18.50;99.90
16158;DHT22;8184;60.256;18.694;2022-07-29T06:23:09;18.30;99.90
16158;DHT22;8184;60.256;18.694;2022-07-29T06:25:39;18.40;99.90
16158;DHT22;8184;60.256;18.694;2022-07-29T06:28:07;19.20;99.90
16158;DHT22;8184;60.256;18.694;2022-07-29T06:30:35;19.10;99.90
16158;DHT22;8184;60.256;18.694;2022-07-29T06:33:03;18.90;99.90
16158;DHT22;8184;60.256;18.694;2022-07-29T06:35:32;19.10;99.90
16158;DHT22;8184;60.256;18.694;2022-07-29T06:38:09;19.10;99.90
16158;DHT22;8184;60.256;18.694;2022-07-29T06:40:57;19.20;99.90
16158;DHT22;8184;60.256;18.694;2022-07-29T06:43:32;19.20;99.90
16158;DHT22;8184;60.256;18.694;2022-07-29T06:46:20;18.90;99.90
16158;DHT22;8184;60.256;18.694;2022-07-29T06:48:49;18.80;99.90
16158;DHT22;8184;60.256;18.694;2022-07-29T06:51:20;19.00;99.90
16158;DHT22;8184;60.256;18.694;2022-07-29T06:53:51;18.40;99.90
16158;DHT22;8184;60.256;18.694;2022-07-29T06:56:28;18.60;99.90
16158;DHT22;8184;60.256;18.694;2022-07-29T06:58:57;18.40;99.90
16158;DHT22;8184;60.256;18.694;2022-07-29T07:01:27;18.70;99.90
16158;DHT22;8184;60.256;18.694;2022-07-29T07:03:55;18.60;99.90
16158;DHT22;8184;60.256;18.694;2022-07-29T07:06:24;18.90;99.90
16158;DHT22;8184;60.256;18.694;2022-07-29T07:08:53;19.10;99.90
16158;DHT22;8184;60.256;18.694;2022-07-29T07:11:22;19.70;99.90
16158;DHT22;8184;60.256;18.694;2022-07-29T07:13:50;19.50;99.90
16158;DHT22;8184;60.256;18.694;2022-07-29T07:16:18;19.20;99.90
16158;DHT22;8184;60.256;18.694;2022-07-29T07:18:47;19.20;99.90
16158;DHT22;8184;60.256;18.694;2022-07-29T07:21:15;18.80;99.90
16158;DHT22;8184;60.256;18.694;2022-07-29T07:23:45;19.10;99.90
16158;DHT22;8184;60.256;18.694;2022-07-29T07:26:15;19.10;99.90
16158;DHT22;8184;60.256;18.694;2022-07-29T07:28:45;19.10;99.90
16158;DHT22;8184;60.256;18.694;2022-07-29T07:31:13;19.00;99.90
16158;DHT22;8184;60.256;18.694;2022-07-29T07:33:41;19.20;99.90
16158;DHT22;8184;60.256;18.694;2022-07-29T07:36:09;18.80;99.90
16158;DHT22;8184;60.256;18.694;2022-07-29T07:38:40;19.10;99.90
16158;DHT22;8184;60.256;18.694;2022-07-29T07:41:10;19.00;99.90
16158;DHT22;8184;60.256;18.694;2022-07-29T07:43:39;19.10;99.90
16158;DHT22;8184;60.256;18.694;2022-07-29T07:46:08;19.20;99.90
16158;DHT22;8184;60.256;18.694;2022-07-29T07:48:37;19.30;99.90
16158;DHT22;8184;60.256;18.694;2022-07-29T07:51:05;19.80;99.90
16158;DHT22;8184;60.256;18.694;2022-07-29T07:53:34;19.40;99.90
16158;DHT22;8184;60.256;18.694;2022-07-29T07:56:02;19.40;99.90
16158;DHT22;8184;60.256;18.694;2022-07-29T07:58:39;19.50;99.90
16158;DHT22;8184;60.256;18.694;2022-07-29T08:01:07;19.10;99.90
16158;DHT22;8184;60.256;18.694;2022-07-29T08:03:36;19.00;99.90
16158;DHT22;8184;60.256;18.694;2022-07-29T08:06:06;19.30;99.90
16158;DHT22;8184;60.256;18.694;2022-07-29T08:08:35;19.20;99.90
16158;DHT22;8184;60.256;18.694;2022-07-29T08:11:03;19.10;99.90
16158;DHT22;8184;60.256;18.694;2022-07-29T08:13:35;19.10;99.90
16158;DHT22;8184;60.256;18.694;2022-07-29T08:16:06;19.40;99.90
16158;DHT22;8184;60.256;18.694;2022-07-29T08:18:43;18.60;99.90
16158;DHT22;8184;60.256;18.694;2022-07-29T08:21:14;19.10;99.90
16158;DHT22;8184;60.256;18.694;2022-07-29T08:23:43;18.90;99.90
16158;DHT22;8184;60.256;18.694;2022-07-29T08:26:30;19.60;99.90
16158;DHT22;8184;60.256;18.694;2022-07-29T08:28:58;19.70;99.90
16158;DHT22;8184;60.256;18.694;2022-07-29T08:31:27;19.40;99.90
16158;DHT22;8184;60.256;18.694;2022-07-29T08:33:56;19.20;99.90
16158;DHT22;8184;60.256;18.694;2022-07-29T08:36:26;19.00;99.90
16158;DHT22;8184;60.256;18.694;2022-07-29T08:38:58;19.20;99.90
16158;DHT22;8184;60.256;18.694;2022-07-29T08:41:26;19.80;99.90
16158;DHT22;8184;60.256;18.694;2022-07-29T08:43:54;19.60;99.90
16158;DHT22;8184;60.256;18.694;2022-07-29T08:46:23;19.50;99.90
16158;DHT22;8184;60.256;18.694;2022-07-29T08:48:53;18.90;99.90
16158;DHT22;8184;60.256;18.694;2022-07-29T08:51:21;19.10;99.90
16158;DHT22;8184;60.256;18.694;2022-07-29T08:53:51;18.90;99.90
16158;DHT22;8184;60.256;18.694;2022-07-29T08:56:19;19.10;99.90
16158;DHT22;8184;60.256;18.694;2022-07-29T08:58:48;19.70;99.90
16158;DHT22;8184;60.256;18.694;2022-07-29T09:01:21;19.50;99.90
16158;DHT22;8184;60.256;18.694;2022-07-29T09:04:04;19.20;99.90
16158;DHT22;8184;60.256;18.694;2022-07-29T09:06:36;19.40;99.90
16158;DHT22;8184;60.256;18.694;2022-07-29T09:09:07;19.80;99.90
16158;DHT22;8184;60.256;18.694;2022-07-29T09:11:36;19.70;99.90
16158;DHT22;8184;60.256;18.694;2022-07-29T09:14:06;20.30;99.90
16158;DHT22;8184;60.256;18.694;2022-07-29T09:16:48;20.60;99.90
16158;DHT22;8184;60.256;18.694;2022-07-29T09:19:21;20.00;99.90
16158;DHT22;8184;60.256;18.694;2022-07-29T09:21:50;20.30;99.90
16158;DHT22;8184;60.256;18.694;2022-07-29T09:24:37;20.50;99.90
16158;DHT22;8184;60.256;18.694;2022-07-29T09:27:19;19.90;99.90
16158;DHT22;8184;60.256;18.694;2022-07-29T09:29:58;20.50;99.90
16158;DHT22;8184;60.256;18.694;2022-07-29T09:32:26;20.60;99.90
16158;DHT22;8184;60.256;18.694;2022-07-29T09:37:47;21.40;99.90
16158;DHT22;8184;60.256;18.694;2022-07-29T09:40:17;21.10;99.90
16158;DHT22;8184;60.256;18.694;2022-07-29T09:42:46;21.00;99.90
16158;DHT22;8184;60.256;18.694;2022-07-29T09:45:25;20.90;99.90
16158;DHT22;8184;60.256;18.694;2022-07-29T09:47:53;21.30;99.90
16158;DHT22;8184;60.256;18.694;2022-07-29T09:50:34;21.20;99.90
16158;DHT22;8184;60.256;18.694;2022-07-29T09:53:04;21.70;99.90
16158;DHT22;8184;60.256;18.694;2022-07-29T09:55:32;22.30;99.90
16158;DHT22;8184;60.256;18.694;2022-07-29T09:58:14;21.30;99.90
16158;DHT22;8184;60.256;18.694;2022-07-29T10:00:46;20.30;99.90
16158;DHT22;8184;60.256;18.694;2022-07-29T10:03:15;19.80;99.90
16158;DHT22;8184;60.256;18.694;2022-07-29T10:06:03;19.70;99.90
16158;DHT22;8184;60.256;18.694;2022-07-29T10:08:36;19.90;99.90
16158;DHT22;8184;60.256;18.694;2022-07-29T10:11:11;20.80;99.90
16158;DHT22;8184;60.256;18.694;2022-07-29T10:13:39;21.10;99.90
16158;DHT22;8184;60.256;18.694;2022-07-29T10:16:10;20.80;99.90
16158;DHT22;8184;60.256;18.694;2022-07-29T10:18:39;19.90;99.90
16158;DHT22;8184;60.256;18.694;2022-07-29T10:21:09;20.00;99.90
16158;DHT22;8184;60.256;18.694;2022-07-29T10:24:00;19.80;99.90
16158;DHT22;8184;60.256;18.694;2022-07-29T10:26:32;20.20;99.90
16158;DHT22;8184;60.256;18.694;2022-07-29T10:29:02;19.50;99.90
16158;DHT22;8184;60.256;18.694;2022-07-29T10:31:35;19.70;99.90
16158;DHT22;8184;60.256;18.694;2022-07-29T10:34:07;20.30;99.90
16158;DHT22;8184;60.256;18.694;2022-07-29T10:36:49;19.60;99.90
16158;DHT22;8184;60.256;18.694;2022-07-29T10:39:27;20.00;99.90
16158;DHT22;8184;60.256;18.694;2022-07-29T10:42:16;20.30;99.90
16158;DHT22;8184;60.256;18.694;2022-07-29T10:44:55;20.00;99.90
16158;DHT22;8184;60.256;18.694;2022-07-29T10:47:25;19.80;99.90
16158;DHT22;8184;60.256;18.694;2022-07-29T10:49:57;20.10;99.90
16158;DHT22;8184;60.256;18.694;2022-07-29T10:52:52;20.70;99.90
16158;DHT22;8184;60.256;18.694;2022-07-29T10:55:37;21.20;99.90
16158;DHT22;8184;60.256;18.694;2022-07-29T10:58:13;20.70;99.90
16158;DHT22;8184;60.256;18.694;2022-07-29T11:00:46;20.20;99.90
16158;DHT22;8184;60.256;18.694;2022-07-29T11:06:03;20.10;99.90
16158;DHT22;8184;60.256;18.694;2022-07-29T11:08:34;19.30;99.90
16158;DHT22;8184;60.256;18.694;2022-07-29T11:14:14;19.60;99.90
16158;DHT22;8184;60.256;18.694;2022-07-29T11:17:00;19.60;99.90
16158;DHT22;8184;60.256;18.694;2022-07-29T11:19:32;20.10;99.90
16158;DHT22;8184;60.256;18.694;2022-07-29T11:22:01;19.70;99.90
16158;DHT22;8184;60.256;18.694;2022-07-29T11:24:31;19.30;99.90
16158;DHT22;8184;60.256;18.694;2022-07-29T11:27:14;19.00;99.90
16158;DHT22;8184;60.256;18.694;2022-07-29T11:29:49;18.70;99.90
16158;DHT22;8184;60.256;18.694;2022-07-29T11:32:19;18.90;99.90
16158;DHT22;8184;60.256;18.694;2022-07-29T11:34:50;18.80;99.90
16158;DHT22;8184;60.256;18.694;2022-07-29T11:37:44;18.60;99.90
16158;DHT22;8184;60.256;18.694;2022-07-29T11:40:20;18.70;99.90
16158;DHT22;8184;60.256;18.694;2022-07-29T11:42:49;18.60;99.90
16158;DHT22;8184;60.256;18.694;2022-07-29T11:45:44;19.00;99.90
16158;DHT22;8184;60.256;18.694;2022-07-29T11:48:17;18.70;99.90
16158;DHT22;8184;60.256;18.694;2022-07-29T11:50:58;19.10;99.90
16158;DHT22;8184;60.256;18.694;2022-07-29T11:53:27;18.70;99.90
16158;DHT22;8184;60.256;18.694;2022-07-29T11:55:58;18.60;99.90
16158;DHT22;8184;60.256;18.694;2022-07-29T11:58:31;19.00;99.90
16158;DHT22;8184;60.256;18.694;2022-07-29T12:01:02;18.60;99.90
16158;DHT22;8184;60.256;18.694;2022-07-29T12:03:31;18.90;99.90
16158;DHT22;8184;60.256;18.694;2022-07-29T12:06:03;18.90;99.90
16158;DHT22;8184;60.256;18.694;2022-07-29T12:08:39;19.20;99.90
16158;DHT22;8184;60.256;18.694;2022-07-29T12:11:14;18.50;99.90
16158;DHT22;8184;60.256;18.694;2022-07-29T12:13:43;18.50;99.90
16158;DHT22;8184;60.256;18.694;2022-07-29T12:16:12;18.70;99.90
16158;DHT22;8184;60.256;18.694;2022-07-29T12:18:40;18.90;99.90
16158;DHT22;8184;60.256;18.694;2022-07-29T12:21:09;18.60;99.90
16158;DHT22;8184;60.256;18.694;2022-07-29T12:23:38;18.50;99.90
16158;DHT22;8184;60.256;18.694;2022-07-29T12:26:07;18.60;99.90
16158;DHT22;8184;60.256;18.694;2022-07-29T12:28:37;19.10;99.90
16158;DHT22;8184;60.256;18.694;2022-07-29T12:31:05;18.90;99.90
16158;DHT22;8184;60.256;18.694;2022-07-29T12:33:35;18.60;99.90
16158;DHT22;8184;60.256;18.694;2022-07-29T12:36:04;18.50;99.90
16158;DHT22;8184;60.256;18.694;2022-07-29T12:38:36;19.20;99.90
16158;DHT22;8184;60.256;18.694;2022-07-29T12:41:05;19.20;99.90
16158;DHT22;8184;60.256;18.694;2022-07-29T12:43:33;18.60;99.90
16158;DHT22;8184;60.256;18.694;2022-07-29T12:46:11;18.80;99.90
16158;DHT22;8184;60.256;18.694;2022-07-29T12:48:41;18.80;99.90
16158;DHT22;8184;60.256;18.694;2022-07-29T12:51:10;18.80;99.90
16158;DHT22;8184;60.256;18.694;2022-07-29T12:53:41;18.70;99.90
16158;DHT22;8184;60.256;18.694;2022-07-29T12:56:15;18.60;99.90
16158;DHT22;8184;60.256;18.694;2022-07-29T12:59:10;18.90;99.90
16158;DHT22;8184;60.256;18.694;2022-07-29T13:01:42;18.90;99.90
16158;DHT22;8184;60.256;18.694;2022-07-29T13:04:23;19.20;99.90
16158;DHT22;8184;60.256;18.694;2022-07-29T13:06:57;18.90;99.90
16158;DHT22;8184;60.256;18.694;2022-07-29T13:09:35;19.40;99.90
16158;DHT22;8184;60.256;18.694;2022-07-29T13:12:05;19.10;99.90
16158;DHT22;8184;60.256;18.694;2022-07-29T13:14:34;20.10;99.90
16158;DHT22;8184;60.256;18.694;2022-07-29T13:17:04;19.60;99.90
16158;DHT22;8184;60.256;18.694;2022-07-29T13:19:35;19.80;99.90
16158;DHT22;8184;60.256;18.694;2022-07-29T13:22:03;20.20;99.90
16158;DHT22;8184;60.256;18.694;2022-07-29T13:24:32;19.70;99.90
16158;DHT22;8184;60.256;18.694;2022-07-29T13:27:00;19.40;99.90
16158;DHT22;8184;60.256;18.694;2022-07-29T13:29:31;19.20;99.90
16158;DHT22;8184;60.256;18.694;2022-07-29T13:32:01;19.30;99.90
16158;DHT22;8184;60.256;18.694;2022-07-29T13:34:32;18.90;99.90
16158;DHT22;8184;60.256;18.694;2022-07-29T13:37:04;18.80;99.90
16158;DHT22;8184;60.256;18.694;2022-07-29T13:39:34;19.20;99.90
16158;DHT22;8184;60.256;18.694;2022-07-29T13:42:05;19.00;99.90
16158;DHT22;8184;60.256;18.694;2022-07-29T13:44:36;19.00;99.90
16158;DHT22;8184;60.256;18.694;2022-07-29T13:47:05;18.70;99.90
16158;DHT22;8184;60.256;18.694;2022-07-29T13:49:35;18.90;99.90
16158;DHT22;8184;60.256;18.694;2022-07-29T13:52:06;19.30;99.90
16158;DHT22;8184;60.256;18.694;2022-07-29T13:54:36;18.90;99.90
16158;DHT22;8184;60.256;18.694;2022-07-29T13:57:08;18.80;99.90
16158;DHT22;8184;60.256;18.694;2022-07-29T13:59:37;19.00;99.90
16158;DHT22;8184;60.256;18.694;2022-07-29T14:02:05;19.30;99.90
16158;DHT22;8184;60.256;18.694;2022-07-29T14:04:34;18.90;99.90
16158;DHT22;8184;60.256;18.694;2022-07-29T14:07:06;19.00;99.90
16158;DHT22;8184;60.256;18.694;2022-07-29T14:09:38;19.40;99.90
16158;DHT22;8184;60.256;18.694;2022-07-29T14:12:07;19.30;99.90
16158;DHT22;8184;60.256;18.694;2022-07-29T14:14:35;19.30;99.90
16158;DHT22;8184;60.256;18.694;2022-07-29T14:17:08;19.60;99.90
16158;DHT22;8184;60.256;18.694;2022-07-29T14:19:38;19.90;99.90
16158;DHT22;8184;60.256;18.694;2022-07-29T14:22:08;19.80;99.90
16158;DHT22;8184;60.256;18.694;2022-07-29T14:24:37;19.80;99.90
16158;DHT22;8184;60.256;18.694;2022-07-29T14:27:05;19.90;99.90
16158;DHT22;8184;60.256;18.694;2022-07-29T14:29:35;20.10;99.90
16158;DHT22;8184;60.256;18.694;2022-07-29T14:32:04;19.80;99.90
16158;DHT22;8184;60.256;18.694;2022-07-29T14:34:33;19.80;99.90
16158;DHT22;8184;60.256;18.694;2022-07-29T14:37:01;19.40;99.90
16158;DHT22;8184;60.256;18.694;2022-07-29T14:39:34;19.40;99.90
16158;DHT22;8184;60.256;18.694;2022-07-29T14:42:08;19.40;99.90
16158;DHT22;8184;60.256;18.694;2022-07-29T14:44:38;19.30;99.90
16158;DHT22;8184;60.256;18.694;2022-07-29T14:47:08;19.70;99.90
16158;DHT22;8184;60.256;18.694;2022-07-29T14:49:36;19.20;99.90
16158;DHT22;8184;60.256;18.694;2022-07-29T14:52:04;19.80;99.90
16158;DHT22;8184;60.256;18.694;2022-07-29T14:54:36;19.30;99.90
16158;DHT22;8184;60.256;18.694;2022-07-29T14:57:05;19.00;99.90
16158;DHT22;8184;60.256;18.694;2022-07-29T14:59:34;19.70;99.90
16158;DHT22;8184;60.256;18.694;2022-07-29T15:02:02;20.00;99.90
16158;DHT22;8184;60.256;18.694;2022-07-29T15:04:30;20.00;99.90
16158;DHT22;8184;60.256;18.694;2022-07-29T15:07:00;20.20;99.90
16158;DHT22;8184;60.256;18.694;2022-07-29T15:09:28;18.90;99.90
16158;DHT22;8184;60.256;18.694;2022-07-29T15:11:58;18.50;99.90
16158;DHT22;8184;60.256;18.694;2022-07-29T15:14:26;17.90;99.90
16158;DHT22;8184;60.256;18.694;2022-07-29T15:16:54;18.10;99.90
16158;DHT22;8184;60.256;18.694;2022-07-29T15:19:22;18.10;99.90
16158;DHT22;8184;60.256;18.694;2022-07-29T15:21:51;19.00;99.90
16158;DHT22;8184;60.256;18.694;2022-07-29T15:24:22;18.50;99.90
16158;DHT22;8184;60.256;18.694;2022-07-29T15:26:50;18.60;99.90
16158;DHT22;8184;60.256;18.694;2022-07-29T15:29:20;18.80;99.90
16158;DHT22;8184;60.256;18.694;2022-07-29T15:31:48;18.50;99.90
16158;DHT22;8184;60.256;18.694;2022-07-29T15:34:16;18.30;99.90
16158;DHT22;8184;60.256;18.694;2022-07-29T15:36:48;18.30;99.90
16158;DHT22;8184;60.256;18.694;2022-07-29T15:39:20;18.30;99.90
16158;DHT22;8184;60.256;18.694;2022-07-29T15:41:48;18.10;99.90
16158;DHT22;8184;60.256;18.694;2022-07-29T15:44:19;18.50;99.90
16158;DHT22;8184;60.256;18.694;2022-07-29T15:46:48;18.80;99.90
16158;DHT22;8184;60.256;18.694;2022-07-29T15:49:33;19.00;99.90
16158;DHT22;8184;60.256;18.694;2022-07-29T15:52:15;18.80;99.90
16158;DHT22;8184;60.256;18.694;2022-07-29T15:54:43;19.00;99.90
16158;DHT22;8184;60.256;18.694;2022-07-29T15:57:11;18.90;99.90
16158;DHT22;8184;60.256;18.694;2022-07-29T15:59:39;18.60;99.90
16158;DHT22;8184;60.256;18.694;2022-07-29T16:02:09;18.80;99.90
16158;DHT22;8184;60.256;18.694;2022-07-29T16:04:37;18.50;99.90